Elmo, TX (75118)

6:52 PM CDT on July 30, 2016 (GMT -0500)
Elmo lake | | Change Station

Elev 512 ft 32.73 °N, 96.17 °W | Updated 9 minutes ago

Clear
Clear
98.0 °F
Feels Like 105 °F
N
1.0
Wind Variable Wind from East
Gusts 3.0 mph

Today
High -- | Low -- °F
--% Chance of Precip.
Yesterday
High -- | Low -- °F
Precip. -- in
Pressure 29.90 in
Visibility 10.0 miles
Clouds Clear
Heat Index 105 °F
Dew Point 70 °F
Humidity 40%
Rainfall 0.00 in
Snow Depth Not available.
6:37 AM 8:24 PM
Waning Crescent, 10% visible
METAR KTRL 302253Z AUTO 21009KT 180V240 10SM CLR 36/17 A2992 RMK AO2 SLP124 T03610167 $
Pressure 29.90 in
Visibility 10.0 miles
Clouds Clear
Heat Index 105 °F
Dew Point 70 °F
Humidity 40%
Rainfall 0.00 in
Snow Depth Not available.
6:37 AM 8:24 PM
Waning Crescent, 10% visible
METAR KTRL 302253Z AUTO 21009KT 180V240 10SM CLR 36/17 A2992 RMK AO2 SLP124 T03610167 $

10-Day Weather Forecast

Almanac

Astronomy

Jul. 30, 2016 Rise Set
Actual Time
Civil Twilight
Nautical Twilight
Astronomical Twilight
Moon
Length of Visible Light
Length of Day
Tomorrow will be .
, % of the Moon is Illuminated

Today's Extremes

State Highs State Lows

Community

WunderPhotos

Upload Photos

1,928,680 photos uploaded!

WunderBlog® & News

Nearby

Air Quality

  Air Quality AQ Index Pollutant
Not available.

Snow Depth

Station Depth Elevation

Earthquake Activity

City Distance Mag. Time & Date
Minimum magnitude displayed is 2.5.

Coastal Water Temperatures

Place Temperature

Stations

Nearby Weather Stations

Station Location Temp. Windchill Dew Point Humidity Wind Precip. Elev Updated Type
                   

Watches & Warnings

There are currently no watches in effect.